Flight Track Log - Related Links

Times and Time Zones

All times are in EDT time to prevent confusion due to time zone crossing. See the N821DK flight status page for this flight to view local times or setup timezone preferences in your user account.

Time Position Orientation Groundspeed Altitude Reporting Facility
EDT Latitude Longitude Course Direction KTS MPH feet Rate Location/Type
Wed 04:59:08 PM 41.8114 -91.8203 269° West 174 200 7,600  Level Chicago Center
Wed 05:00:10 PM 41.8053 -91.8822 262° West 170 196 9,000 1,210 Climbing Chicago Center
Wed 05:01:12 PM 41.7994 -91.9464 263° West 174 200 10,100 532 Climbing Chicago Center
Wed 05:02:00 PM 41.7993 -92.2058 257° West  Level Estimated
Wed 05:02:14 PM 41.7872 -92.0222 258° West 205 236 10,100  Level Chicago Center
Wed 05:03:00 PM 41.7848 -92.2882 261° West  Level Estimated
Wed 05:03:16 PM 41.7739 -92.1219 260° West 227 261 10,100  Level Chicago Center
Wed 05:04:18 PM 41.7606 -92.2042 258° West 228 262 10,100  Level Chicago Center
Wed 05:05:21 PM 41.7481 -92.2883 259° West 230 265 10,100  Level Chicago Center
Wed 05:06:23 PM 41.7353 -92.3744 259° West 233 268 10,100  Level Chicago Center
Wed 05:07:25 PM 41.7228 -92.4594 259° West 235 270 10,100  Level Chicago Center
Wed 05:08:27 PM 41.7086 -92.5606 259° West 234 269 10,100 -194 Level Chicago Center
Wed 05:09:29 PM 41.6950 -92.6469 258° West 237 273 9,700 -484 Descending Chicago Center
Wed 05:10:31 PM 41.6819 -92.7308 258° West 235 270 9,100 -629 Descending Chicago Center
Wed 05:11:33 PM 41.6689 -92.8189 259° West 230 265 8,400 -629 Descending Chicago Center
Wed 05:12:35 PM 41.6569 -92.9008 259° West 229 264 7,800 -532 Descending Chicago Center
Wed 05:13:37 PM 41.6439 -92.9825 258° West 227 261 7,300 -629 Descending Chicago Center
Wed 05:14:39 PM 41.6267 -93.0772 256° West 222 255 6,500 -774 Descending Chicago Center
Wed 05:15:41 PM 41.6167 -93.1539 260° West 214 246 5,700 -912 Descending Chicago Center
Wed 05:16:44 PM 41.6028 -93.2308 256° West 214 246 4,600 -1,108 Descending Chicago Center
Wed 05:17:51 PM 41.5961 -93.3156 264° West 217 250 3,300 -1,151 Descending Minneapolis Center
Wed 05:17:57 PM 41.5886 -93.3378 246° West 215 247 3,200 -393 Descending Minneapolis Center
Wed 05:18:52 PM 41.5847 -93.3908 264° West 209 241 2,900 -194 Descending Minneapolis Center
Wed 05:18:59 PM 41.5772 -93.4119 245° Southwest 207 238 3,000  Climbing Minneapolis Center
Wed 05:19:59 PM 41.5819 -93.4742 276° West 197 227 2,900 -194 Descending Minneapolis Center
Wed 05:20:01 PM 41.5758 -93.4903 243° Southwest 198 228 2,800 -500 Descending Minneapolis Center
Wed 05:20:59 PM 41.5831 -93.5492 279° West 202 232 2,400 -387 Descending Minneapolis Center
Wed 05:21:03 PM 41.5772 -93.5644 243° Southwest 200 230 2,400 -182 Level Minneapolis Center
Wed 05:22:05 PM 41.5792 -93.6414 272° West 197 227 2,200 -435 Descending Minneapolis Center
Wed 05:23:07 PM 41.5661 -93.6900 250° West 153 176 1,500 -629 Descending Minneapolis Center
Wed 05:24:09 PM 41.5389 -93.6633 144° Southeast 124 143 900 -290 Descending Minneapolis Center
Wed 05:25:11 PM 41.5322 -93.6519 128° Southeast 74 85 900  Level Minneapolis Center

Login

Don't have an account? Register now (free) for customized features, flight alerts, and more!